createdAt,value
2017-11-07T00:01:16.557Z,4.00
2017-11-07T00:03:44.124Z,4.00
2017-11-07T00:06:11.716Z,4.10
2017-11-07T00:08:39.303Z,4.10
2017-11-07T00:11:06.869Z,4.10
2017-11-07T00:13:34.497Z,4.10
2017-11-07T00:16:02.056Z,4.20
2017-11-07T00:18:29.621Z,4.20
2017-11-07T00:20:57.239Z,4.20
2017-11-07T00:23:24.908Z,4.20
2017-11-07T00:25:52.504Z,4.20
2017-11-07T00:28:20.126Z,4.20
2017-11-07T00:30:47.793Z,4.20
2017-11-07T00:33:17.472Z,4.20
2017-11-07T00:35:45.068Z,4.20
2017-11-07T00:38:15.065Z,4.20
2017-11-07T00:40:42.656Z,4.20
2017-11-07T00:43:10.988Z,4.20
2017-11-07T00:45:38.576Z,4.20
2017-11-07T00:48:06.144Z,4.20
2017-11-07T00:50:33.757Z,4.20
2017-11-07T00:53:01.325Z,4.20
2017-11-07T00:55:28.889Z,4.20
2017-11-07T00:57:56.472Z,4.20
2017-11-07T01:00:24.036Z,4.20
2017-11-07T01:02:51.899Z,4.20
2017-11-07T01:05:19.469Z,4.20
2017-11-07T01:07:47.241Z,4.10
2017-11-07T01:10:15.999Z,4.10
2017-11-07T01:12:43.569Z,4.10
2017-11-07T01:15:11.160Z,4.10
2017-11-07T01:17:39.496Z,4.10
2017-11-07T01:20:07.083Z,4.10
2017-11-07T01:22:34.652Z,4.10
2017-11-07T01:25:02.241Z,4.10
2017-11-07T01:27:30.580Z,4.10
2017-11-07T01:29:58.192Z,4.10
2017-11-07T01:32:25.756Z,4.10
2017-11-07T01:34:53.320Z,4.10
2017-11-07T01:37:20.912Z,4.10
2017-11-07T01:39:48.476Z,4.00
2017-11-07T01:42:17.985Z,3.80
2017-11-07T01:44:45.551Z,3.80
2017-11-07T01:47:14.073Z,3.80
2017-11-07T01:49:41.652Z,3.80
2017-11-07T01:52:09.248Z,3.90
2017-11-07T01:54:36.808Z,3.90
2017-11-07T01:57:04.700Z,3.90
2017-11-07T01:59:32.272Z,4.00
2017-11-07T02:02:00.604Z,4.00
2017-11-07T02:04:28.192Z,4.00
2017-11-07T02:06:55.762Z,3.90
2017-11-07T02:09:24.125Z,4.10
2017-11-07T02:11:51.729Z,4.10
2017-11-07T02:14:19.624Z,4.10
2017-11-07T02:16:47.275Z,4.10
2017-11-07T02:19:16.468Z,4.10
2017-11-07T02:21:44.089Z,4.20
2017-11-07T02:24:11.704Z,4.20
2017-11-07T02:26:39.301Z,4.20
2017-11-07T02:29:06.910Z,4.20
2017-11-07T02:31:34.594Z,4.30
2017-11-07T02:34:02.182Z,4.30
2017-11-07T02:36:29.757Z,4.20
2017-11-07T02:38:57.460Z,4.20
2017-11-07T02:41:25.367Z,4.30
2017-11-07T02:43:52.943Z,4.30
2017-11-07T02:46:20.537Z,4.20
2017-11-07T02:48:48.892Z,4.20
2017-11-07T02:51:17.363Z,4.30
2017-11-07T02:53:44.936Z,4.20
2017-11-07T02:56:12.585Z,4.20
2017-11-07T02:58:40.258Z,4.30
2017-11-07T03:01:07.878Z,4.30
2017-11-07T03:03:35.444Z,4.20
2017-11-07T03:06:03.004Z,4.20
2017-11-07T03:08:30.596Z,4.10
2017-11-07T03:10:58.160Z,4.00
2017-11-07T03:13:25.761Z,4.00
2017-11-07T03:15:53.334Z,4.00
2017-11-07T03:18:20.936Z,3.90
2017-11-07T03:20:48.741Z,3.90
2017-11-07T03:23:16.747Z,4.00
2017-11-07T03:25:44.311Z,4.00
2017-11-07T03:28:11.900Z,3.90
2017-11-07T03:30:39.468Z,4.00
2017-11-07T03:33:07.052Z,4.00
2017-11-07T03:35:35.380Z,4.00
2017-11-07T03:38:02.988Z,4.00
2017-11-07T03:40:31.320Z,3.90
2017-11-07T03:42:58.892Z,3.90
2017-11-07T03:45:26.565Z,3.90
2017-11-07T03:47:54.168Z,3.90
2017-11-07T03:50:21.732Z,3.90
2017-11-07T03:52:49.344Z,3.90
2017-11-07T03:55:16.933Z,4.00
2017-11-07T03:57:45.264Z,4.00
2017-11-07T04:00:12.856Z,3.90
2017-11-07T04:02:40.429Z,3.90
2017-11-07T04:05:08.789Z,3.90
2017-11-07T04:07:36.352Z,3.90
2017-11-07T04:10:04.953Z,3.90
2017-11-07T04:12:33.280Z,3.90
2017-11-07T04:15:00.843Z,3.90
2017-11-07T04:17:28.433Z,3.90
2017-11-07T04:19:56.001Z,4.00
2017-11-07T04:22:24.056Z,4.00
2017-11-07T04:24:51.724Z,4.00
2017-11-07T04:27:19.293Z,4.00
2017-11-07T04:29:48.388Z,3.90
2017-11-07T04:32:17.643Z,3.90
2017-11-07T04:34:45.229Z,3.90
2017-11-07T04:37:15.129Z,4.00
2017-11-07T04:39:42.729Z,4.00
2017-11-07T04:42:10.381Z,4.00
2017-11-07T04:44:38.729Z,4.00
2017-11-07T04:47:06.325Z,4.00
2017-11-07T04:49:35.424Z,4.00
2017-11-07T04:52:02.992Z,4.00
2017-11-07T04:54:31.344Z,4.00
2017-11-07T04:56:58.905Z,4.00
2017-11-07T04:59:26.501Z,4.00
2017-11-07T05:01:55.148Z,4.00
2017-11-07T05:04:22.739Z,4.00
2017-11-07T05:06:51.068Z,4.00
2017-11-07T05:09:18.676Z,3.90
2017-11-07T05:11:46.245Z,4.00
2017-11-07T05:14:14.704Z,3.90
2017-11-07T05:16:43.061Z,3.90
2017-11-07T05:19:10.671Z,3.90
2017-11-07T05:21:39.024Z,4.00
2017-11-07T05:24:06.592Z,4.00
2017-11-07T05:26:34.184Z,4.00
2017-11-07T05:29:01.744Z,4.00
2017-11-07T05:31:29.330Z,4.00
2017-11-07T05:33:56.892Z,4.00
2017-11-07T05:36:24.480Z,4.00
2017-11-07T05:38:52.057Z,3.90
2017-11-07T05:41:19.819Z,4.00
2017-11-07T05:43:48.887Z,3.90
2017-11-07T05:46:17.471Z,3.90
2017-11-07T05:48:45.056Z,3.90
2017-11-07T05:51:12.629Z,3.90
2017-11-07T05:53:40.221Z,3.90
2017-11-07T05:56:07.789Z,3.80
2017-11-07T05:58:35.380Z,3.90
2017-11-07T06:01:02.953Z,3.90
2017-11-07T06:03:31.312Z,3.90
2017-11-07T06:05:58.888Z,3.90
2017-11-07T06:08:26.485Z,3.80
2017-11-07T06:10:54.826Z,3.90
2017-11-07T06:13:22.420Z,3.90
2017-11-07T06:15:50.793Z,3.80
2017-11-07T06:18:19.168Z,3.90
2017-11-07T06:20:46.728Z,3.80
2017-11-07T06:23:15.253Z,3.90
2017-11-07T06:25:42.818Z,3.80
2017-11-07T06:28:10.380Z,3.80
2017-11-07T06:30:37.968Z,3.70
2017-11-07T06:33:05.533Z,3.80
2017-11-07T06:35:34.089Z,3.80
2017-11-07T06:38:01.672Z,3.80
2017-11-07T06:40:29.235Z,3.80
2017-11-07T06:42:56.829Z,3.80
2017-11-07T06:45:25.184Z,3.80
2017-11-07T06:47:52.752Z,3.80
2017-11-07T06:50:20.520Z,3.90
2017-11-07T06:52:48.100Z,3.90
2017-11-07T06:55:17.249Z,3.90
2017-11-07T06:57:44.843Z,3.90
2017-11-07T07:00:12.604Z,3.90
2017-11-07T07:02:40.943Z,3.90
2017-11-07T07:05:08.512Z,3.90
2017-11-07T07:07:36.100Z,3.90
2017-11-07T07:10:03.677Z,3.90
2017-11-07T07:12:32.032Z,3.90
2017-11-07T07:14:59.600Z,3.90
2017-11-07T07:17:27.195Z,3.90
2017-11-07T07:19:55.523Z,4.00
2017-11-07T07:22:23.281Z,4.00
2017-11-07T07:24:50.857Z,4.00
2017-11-07T07:27:18.429Z,4.10
2017-11-07T07:29:46.015Z,4.10
2017-11-07T07:32:15.424Z,4.10
2017-11-07T07:34:43.753Z,4.20
2017-11-07T07:37:11.323Z,4.10
2017-11-07T07:39:38.908Z,4.20
2017-11-07T07:42:07.261Z,4.20
2017-11-07T07:44:34.852Z,4.20
2017-11-07T07:47:03.193Z,4.20
2017-11-07T07:49:30.778Z,4.20
2017-11-07T07:51:58.437Z,4.20
2017-11-07T07:54:27.536Z,4.20
2017-11-07T07:56:55.912Z,4.30
2017-11-07T07:59:23.505Z,4.30
2017-11-07T08:01:51.834Z,4.40
2017-11-07T08:04:19.438Z,4.40
2017-11-07T08:06:47.772Z,4.30
2017-11-07T08:09:17.704Z,4.40
2017-11-07T08:11:45.264Z,4.40
2017-11-07T08:14:15.291Z,4.50
2017-11-07T08:16:43.625Z,4.50
2017-11-07T08:19:11.224Z,4.40
2017-11-07T08:21:39.556Z,4.50
2017-11-07T08:24:07.148Z,4.50
2017-11-07T08:26:34.708Z,4.50
2017-11-07T08:29:02.291Z,4.50
2017-11-07T08:31:29.855Z,4.50
2017-11-07T08:33:57.448Z,4.50
2017-11-07T08:36:25.013Z,4.50
2017-11-07T08:38:52.612Z,4.60
2017-11-07T08:41:20.175Z,4.60
2017-11-07T08:43:47.751Z,4.60
2017-11-07T08:46:16.269Z,4.60
2017-11-07T08:48:43.832Z,4.70
2017-11-07T08:51:11.424Z,4.70
2017-11-07T08:53:38.992Z,4.70
2017-11-07T08:56:06.576Z,4.80
2017-11-07T08:58:34.145Z,4.80
2017-11-07T09:01:01.736Z,4.80
2017-11-07T09:03:29.296Z,4.80
2017-11-07T09:05:56.896Z,4.80
2017-11-07T09:08:24.464Z,4.80
2017-11-07T09:10:52.024Z,4.80
2017-11-07T09:13:19.888Z,4.80
2017-11-07T09:15:47.453Z,4.80
2017-11-07T09:18:16.505Z,4.90
2017-11-07T09:20:44.073Z,4.90
2017-11-07T09:23:11.708Z,4.90
2017-11-07T09:25:40.036Z,5.00
2017-11-07T09:28:07.605Z,5.00
2017-11-07T09:30:35.196Z,5.00
2017-11-07T09:33:02.761Z,5.10
2017-11-07T09:35:31.125Z,5.20
2017-11-07T09:37:58.738Z,5.20
2017-11-07T09:40:26.336Z,5.30
2017-11-07T09:42:53.908Z,5.40
2017-11-07T09:45:21.639Z,5.40
2017-11-07T09:47:49.208Z,5.40
2017-11-07T09:50:17.680Z,5.40
2017-11-07T09:52:45.263Z,5.40
2017-11-07T09:55:12.854Z,5.40
2017-11-07T09:57:41.199Z,5.50
2017-11-07T10:00:08.793Z,5.40
2017-11-07T10:02:37.130Z,5.40
2017-11-07T10:05:04.920Z,5.40
2017-11-07T10:07:33.264Z,5.40
2017-11-07T10:10:00.880Z,5.40
2017-11-07T10:12:29.231Z,5.30
2017-11-07T10:14:56.805Z,5.30
2017-11-07T10:17:25.163Z,5.30
2017-11-07T10:19:52.790Z,5.30
2017-11-07T10:22:20.392Z,5.30
2017-11-07T10:24:47.964Z,5.20
2017-11-07T10:27:17.260Z,5.20
2017-11-07T10:29:44.924Z,5.20
2017-11-07T10:32:13.448Z,5.30
2017-11-07T10:34:41.029Z,5.20
2017-11-07T10:37:08.641Z,5.20
2017-11-07T10:39:36.218Z,5.20
2017-11-07T10:42:04.572Z,5.20
2017-11-07T10:44:32.141Z,5.20
2017-11-07T10:46:59.732Z,5.30
2017-11-07T10:49:27.356Z,5.30
2017-11-07T10:51:54.949Z,5.30
2017-11-07T10:54:23.924Z,5.30
2017-11-07T10:56:52.287Z,5.30
2017-11-07T10:59:21.392Z,5.30
2017-11-07T11:01:48.983Z,5.30
2017-11-07T11:04:17.500Z,5.30
2017-11-07T11:06:45.064Z,5.20
2017-11-07T11:09:13.572Z,5.20
2017-11-07T11:11:41.137Z,5.10
2017-11-07T11:14:08.725Z,5.10
2017-11-07T11:16:37.056Z,5.20
2017-11-07T11:19:04.637Z,5.20
2017-11-07T11:21:32.975Z,5.30
2017-11-07T11:24:00.559Z,5.30
2017-11-07T11:26:28.124Z,5.30
2017-11-07T11:28:55.944Z,5.30
2017-11-07T11:31:23.514Z,5.40
2017-11-07T11:33:51.513Z,5.40
2017-11-07T11:36:19.079Z,5.50
2017-11-07T11:38:46.643Z,5.50
2017-11-07T11:41:15.224Z,5.50
2017-11-07T11:43:42.804Z,5.60
2017-11-07T11:46:10.404Z,5.50
2017-11-07T11:48:37.996Z,5.50
2017-11-07T11:51:05.992Z,5.50
2017-11-07T11:53:33.566Z,5.50
2017-11-07T11:56:01.895Z,5.40
2017-11-07T11:58:29.492Z,5.40
2017-11-07T12:00:57.868Z,5.40
2017-11-07T12:03:25.440Z,5.30
2017-11-07T12:05:53.011Z,5.30
2017-11-07T12:08:21.440Z,5.20
2017-11-07T12:10:49.036Z,5.20
2017-11-07T12:13:17.395Z,5.30
2017-11-07T12:15:44.959Z,5.30
2017-11-07T12:18:13.235Z,5.30
2017-11-07T12:20:40.804Z,5.40
2017-11-07T12:23:08.400Z,5.40
2017-11-07T12:25:36.740Z,5.50
2017-11-07T12:28:04.348Z,5.40
2017-11-07T12:30:31.924Z,5.50
2017-11-07T12:32:59.489Z,5.50
2017-11-07T12:35:27.085Z,5.50
2017-11-07T12:37:54.672Z,5.50
2017-11-07T12:40:23.009Z,5.50
2017-11-07T12:42:50.572Z,5.50
2017-11-07T12:45:18.161Z,5.60
2017-11-07T12:47:46.496Z,5.60
2017-11-07T12:50:27.899Z,5.60
2017-11-07T12:52:55.464Z,5.60
2017-11-07T12:55:23.056Z,5.60
2017-11-07T12:57:51.408Z,5.70
2017-11-07T13:00:18.996Z,5.70
2017-11-07T13:02:47.320Z,5.80
2017-11-07T13:05:17.170Z,5.80
2017-11-07T13:07:44.752Z,5.70
2017-11-07T13:10:14.032Z,5.90
2017-11-07T13:12:41.704Z,5.80
2017-11-07T13:15:09.360Z,5.90
2017-11-07T13:17:36.933Z,5.90
2017-11-07T13:20:05.289Z,5.80
2017-11-07T13:22:32.877Z,5.80
2017-11-07T13:25:01.207Z,5.80
2017-11-07T13:27:28.800Z,5.80
2017-11-07T13:29:56.460Z,5.80
2017-11-07T13:32:24.053Z,5.80
2017-11-07T13:34:52.413Z,5.90
2017-11-07T13:37:20.773Z,5.90
2017-11-07T13:39:48.348Z,5.90
2017-11-07T13:42:17.228Z,5.90
2017-11-07T13:44:44.797Z,5.90
2017-11-07T13:47:12.551Z,5.80
2017-11-07T13:49:40.121Z,5.90
2017-11-07T13:52:08.458Z,5.80
2017-11-07T13:54:36.062Z,5.80
2017-11-07T13:57:03.680Z,5.80
2017-11-07T13:59:31.244Z,5.80
2017-11-07T14:01:58.818Z,5.80
2017-11-07T14:04:26.408Z,5.80
2017-11-07T14:06:54.751Z,5.80
2017-11-07T14:09:22.341Z,5.80
2017-11-07T14:11:49.900Z,5.80
2017-11-07T14:14:17.492Z,5.80
2017-11-07T14:16:45.820Z,5.90
2017-11-07T14:19:15.449Z,5.90
2017-11-07T14:21:43.020Z,5.90
2017-11-07T14:24:10.616Z,5.90
2017-11-07T14:26:38.176Z,5.90
2017-11-07T14:29:05.801Z,5.90
2017-11-07T14:31:33.377Z,5.80
2017-11-07T14:34:01.736Z,5.80
2017-11-07T14:36:29.308Z,5.80
2017-11-07T14:38:57.664Z,5.80
2017-11-07T14:41:25.229Z,5.80
2017-11-07T14:43:52.792Z,5.80
2017-11-07T14:46:20.460Z,5.90
2017-11-07T14:48:48.037Z,5.70
2017-11-07T14:51:16.896Z,5.80
2017-11-07T14:53:44.467Z,5.80
2017-11-07T14:56:12.060Z,5.90
2017-11-07T14:58:40.401Z,5.80
2017-11-07T15:01:07.968Z,5.80
2017-11-07T15:03:35.567Z,5.80
2017-11-07T15:06:03.197Z,5.80
2017-11-07T15:08:30.792Z,5.80
2017-11-07T15:10:58.359Z,5.80
2017-11-07T15:13:25.952Z,5.90
2017-11-07T15:15:53.520Z,5.80
2017-11-07T15:18:21.108Z,5.90
2017-11-07T15:20:48.668Z,5.90
2017-11-07T15:23:17.739Z,6.00
2017-11-07T15:25:45.301Z,5.90
2017-11-07T15:28:14.404Z,6.00
2017-11-07T15:30:41.972Z,6.00
2017-11-07T15:33:09.559Z,6.00
2017-11-07T15:35:37.898Z,6.00
2017-11-07T15:38:05.482Z,6.00
2017-11-07T15:40:33.823Z,6.10
2017-11-07T15:43:01.811Z,6.00
2017-11-07T15:45:29.375Z,6.00
2017-11-07T15:47:56.972Z,6.00
2017-11-07T15:50:25.305Z,6.00
2017-11-07T15:52:52.896Z,6.00
2017-11-07T15:55:21.229Z,6.00
2017-11-07T15:57:48.836Z,6.00
2017-11-07T16:00:17.685Z,6.00
2017-11-07T16:02:45.276Z,6.00
2017-11-07T16:05:13.692Z,6.00
2017-11-07T16:07:41.320Z,6.00
2017-11-07T16:10:08.915Z,6.00
2017-11-07T16:12:36.484Z,6.00
2017-11-07T16:15:04.071Z,6.00
2017-11-07T16:17:31.632Z,6.00
2017-11-07T16:19:59.225Z,6.00
2017-11-07T16:22:26.796Z,6.00
2017-11-07T16:24:55.152Z,6.10
2017-11-07T16:27:23.483Z,6.10
2017-11-07T16:29:51.299Z,6.00
2017-11-07T16:32:18.868Z,6.10
2017-11-07T16:34:46.436Z,6.00
2017-11-07T16:37:15.508Z,6.10
2017-11-07T16:39:43.081Z,6.00
2017-11-07T16:42:10.676Z,6.10
2017-11-07T16:44:38.241Z,6.10
2017-11-07T16:47:05.828Z,6.10
2017-11-07T16:49:33.402Z,6.10
2017-11-07T16:52:00.992Z,6.10
2017-11-07T16:54:28.563Z,6.10
2017-11-07T16:56:56.936Z,6.10
2017-11-07T16:59:24.509Z,6.10
2017-11-07T17:01:52.841Z,6.10
2017-11-07T17:04:20.436Z,6.10
2017-11-07T17:06:48.003Z,6.10
2017-11-07T17:09:17.179Z,6.10
2017-11-07T17:11:44.844Z,6.20
2017-11-07T17:14:12.433Z,6.20
2017-11-07T17:16:40.768Z,6.10
2017-11-07T17:19:08.356Z,6.10
2017-11-07T17:21:36.688Z,6.10
2017-11-07T17:24:04.285Z,6.10
2017-11-07T17:26:31.852Z,6.10
2017-11-07T17:29:00.949Z,6.10
2017-11-07T17:31:28.517Z,6.10
2017-11-07T17:33:56.877Z,6.10
2017-11-07T17:36:24.449Z,6.10
2017-11-07T17:38:52.032Z,6.10
2017-11-07T17:41:20.359Z,6.10
2017-11-07T17:43:47.949Z,6.10
2017-11-07T17:46:16.999Z,6.10
2017-11-07T17:48:44.588Z,6.10
2017-11-07T17:51:12.156Z,6.10
2017-11-07T17:53:39.749Z,6.10
2017-11-07T17:56:08.084Z,6.10
2017-11-07T17:58:35.667Z,6.10
2017-11-07T18:01:04.000Z,6.00
2017-11-07T18:03:31.604Z,6.00
2017-11-07T18:05:59.176Z,6.00
2017-11-07T18:08:27.505Z,6.10
2017-11-07T18:10:55.100Z,6.10
2017-11-07T18:13:22.705Z,6.10
2017-11-07T18:15:50.288Z,6.10
2017-11-07T18:18:17.888Z,6.10
2017-11-07T18:20:45.465Z,6.10
2017-11-07T18:23:14.761Z,6.10
2017-11-07T18:25:43.095Z,6.10
2017-11-07T18:28:10.702Z,6.10
2017-11-07T18:30:39.032Z,6.10
2017-11-07T18:33:06.592Z,6.00
2017-11-07T18:35:34.289Z,6.10
2017-11-07T18:38:03.365Z,6.10
2017-11-07T18:40:31.352Z,6.10
2017-11-07T18:42:58.916Z,6.10
2017-11-07T18:45:26.489Z,6.10
2017-11-07T18:47:54.848Z,6.10
2017-11-07T18:50:22.520Z,6.10
2017-11-07T18:52:50.112Z,6.10
2017-11-07T18:55:17.704Z,6.20
2017-11-07T18:57:45.373Z,6.20
2017-11-07T19:00:15.443Z,6.20
2017-11-07T19:02:44.076Z,6.10
2017-11-07T19:05:11.660Z,6.10
2017-11-07T19:07:40.801Z,6.10
2017-11-07T19:10:08.391Z,6.10
2017-11-07T19:12:36.172Z,6.20
2017-11-07T19:15:03.749Z,6.20
2017-11-07T19:17:32.076Z,6.20
2017-11-07T19:19:59.708Z,6.20
2017-11-07T19:22:28.105Z,6.20
2017-11-07T19:24:56.440Z,6.20
2017-11-07T19:27:24.032Z,6.20
2017-11-07T19:29:55.447Z,6.30
2017-11-07T19:32:23.040Z,6.30
2017-11-07T19:34:51.378Z,6.20
2017-11-07T19:37:18.989Z,6.20
2017-11-07T19:39:47.330Z,6.20
2017-11-07T19:42:17.476Z,6.10
2017-11-07T19:44:45.817Z,6.20
2017-11-07T19:47:15.423Z,6.20
2017-11-07T19:49:43.013Z,6.10
2017-11-07T19:52:10.583Z,6.20
2017-11-07T19:54:38.171Z,6.20
2017-11-07T19:57:05.732Z,6.20
2017-11-07T19:59:33.320Z,6.30
2017-11-07T20:02:00.893Z,6.20
2017-11-07T20:04:28.512Z,6.20
2017-11-07T20:06:56.076Z,6.20
2017-11-07T20:09:23.649Z,6.20
2017-11-07T20:11:51.240Z,6.20
2017-11-07T20:14:18.804Z,6.20
2017-11-07T20:16:46.395Z,6.30
2017-11-07T20:19:16.472Z,6.20
2017-11-07T20:21:44.065Z,6.20
2017-11-07T20:24:11.642Z,6.30
2017-11-07T20:26:40.098Z,6.30
2017-11-07T20:29:07.673Z,6.30
2017-11-07T20:31:36.492Z,6.30
2017-11-07T20:34:04.174Z,6.30
2017-11-07T20:36:31.752Z,6.30
2017-11-07T20:38:59.401Z,6.30
2017-11-07T20:41:27.392Z,6.30
2017-11-07T20:44:01.175Z,6.30
2017-11-07T20:46:30.396Z,6.20
2017-11-07T20:48:58.008Z,6.20
2017-11-07T20:51:26.364Z,6.30
2017-11-07T20:53:53.932Z,6.30
2017-11-07T20:56:22.294Z,6.40
2017-11-07T20:58:49.920Z,6.30
2017-11-07T21:01:17.992Z,6.40
2017-11-07T21:03:45.580Z,6.40
2017-11-07T21:06:14.368Z,6.40
2017-11-07T21:08:41.938Z,6.40
2017-11-07T21:11:10.300Z,6.40
2017-11-07T21:13:37.956Z,6.40
2017-11-07T21:16:05.576Z,6.40
2017-11-07T21:18:33.207Z,6.50
2017-11-07T21:21:01.576Z,6.40
2017-11-07T21:23:29.167Z,6.40
2017-11-07T21:25:57.492Z,6.40
2017-11-07T21:28:25.100Z,6.40
2017-11-07T21:30:53.448Z,6.40
2017-11-07T21:33:21.036Z,6.40
2017-11-07T21:35:48.660Z,6.40
2017-11-07T21:38:17.686Z,6.40
2017-11-07T21:40:45.292Z,6.40
2017-11-07T21:43:15.333Z,6.40
2017-11-07T21:45:42.933Z,6.40
2017-11-07T21:48:10.524Z,6.40
2017-11-07T21:50:38.103Z,6.40
2017-11-07T21:53:05.687Z,6.40
2017-11-07T21:55:33.287Z,6.40
2017-11-07T21:58:01.652Z,6.40
2017-11-07T22:00:29.241Z,6.30
2017-11-07T22:02:57.575Z,6.40
2017-11-07T22:05:25.164Z,6.40
2017-11-07T22:07:53.497Z,6.40
2017-11-07T22:10:21.098Z,6.40
2017-11-07T22:12:49.436Z,6.40
2017-11-07T22:15:17.132Z,6.30
2017-11-07T22:17:55.417Z,6.30
2017-11-07T22:20:23.033Z,6.30
2017-11-07T22:22:57.319Z,6.30
2017-11-07T22:25:27.592Z,6.40
2017-11-07T22:27:55.203Z,6.40
2017-11-07T22:30:22.764Z,6.40
2017-11-07T22:32:51.258Z,6.40
2017-11-07T22:37:53.631Z,6.40
2017-11-07T22:40:21.191Z,6.30
2017-11-07T22:42:48.779Z,6.30
2017-11-07T22:45:17.204Z,6.30
2017-11-07T22:47:44.865Z,6.30
2017-11-07T22:50:13.370Z,6.30
2017-11-07T22:52:40.960Z,6.30
2017-11-07T22:55:09.296Z,6.30
2017-11-07T22:57:36.860Z,6.30
2017-11-07T23:00:04.452Z,6.30
2017-11-07T23:02:32.438Z,6.20
2017-11-07T23:05:00.048Z,6.20
2017-11-07T23:07:27.620Z,6.10
2017-11-07T23:09:55.232Z,6.10
2017-11-07T23:12:23.576Z,6.10
2017-11-07T23:14:51.170Z,6.10
2017-11-07T23:17:19.501Z,6.10
2017-11-07T23:19:47.233Z,6.10
2017-11-07T23:22:17.284Z,6.10
2017-11-07T23:24:44.869Z,6.10
2017-11-07T23:27:14.147Z,6.10
2017-11-07T23:29:41.720Z,6.10
2017-11-07T23:32:09.317Z,6.00
2017-11-07T23:34:37.652Z,6.10
2017-11-07T23:37:05.245Z,6.10
2017-11-07T23:39:33.576Z,6.10
2017-11-07T23:42:01.168Z,6.10
2017-11-07T23:44:28.737Z,6.10
2017-11-07T23:46:57.205Z,6.10
2017-11-07T23:49:24.777Z,6.10
2017-11-07T23:51:52.346Z,6.20
2017-11-07T23:54:20.704Z,6.10
2017-11-07T23:56:48.267Z,6.10
2017-11-07T23:59:19.627Z,6.10
